createdAt,value
2019-05-18T00:01:28.760Z,10.60
2019-05-18T00:03:56.440Z,10.60
2019-05-18T00:06:24.336Z,10.60
2019-05-18T00:08:52.019Z,10.60
2019-05-18T00:11:19.657Z,10.50
2019-05-18T00:13:47.332Z,10.50
2019-05-18T00:16:15.052Z,10.50
2019-05-18T00:18:42.731Z,10.40
2019-05-18T00:21:10.450Z,10.30
2019-05-18T00:23:38.094Z,10.20
2019-05-18T00:26:05.787Z,10.10
2019-05-18T00:28:33.427Z,10.00
2019-05-18T00:31:01.108Z,10.00
2019-05-18T00:33:28.786Z,10.00
2019-05-18T00:35:56.531Z,10.00
2019-05-18T00:38:24.171Z,10.00
2019-05-18T00:40:51.920Z,10.00
2019-05-18T00:43:19.568Z,10.00
2019-05-18T00:45:47.306Z,10.00
2019-05-18T00:48:14.951Z,10.00
2019-05-18T00:50:42.633Z,9.90
2019-05-18T00:53:10.271Z,9.80
2019-05-18T00:55:38.047Z,9.70
2019-05-18T00:58:05.694Z,9.70
2019-05-18T01:00:33.684Z,9.60
2019-05-18T01:03:01.595Z,9.60
2019-05-18T01:05:29.566Z,9.50
2019-05-18T01:07:57.199Z,9.50
2019-05-18T01:10:25.187Z,9.50
2019-05-18T01:12:52.822Z,9.40
2019-05-18T01:15:20.533Z,9.40
2019-05-18T01:17:56.892Z,9.40
2019-05-18T01:20:17.647Z,9.30
2019-05-18T01:22:45.328Z,9.30
2019-05-18T01:25:13.040Z,9.30
2019-05-18T01:27:41.075Z,9.30
2019-05-18T01:30:09.278Z,9.30
2019-05-18T01:32:36.963Z,9.30
2019-05-18T01:35:05.929Z,9.30
2019-05-18T01:37:33.623Z,9.30
2019-05-18T01:40:01.542Z,9.30
2019-05-18T01:42:29.874Z,9.20
2019-05-18T01:44:57.787Z,9.20
2019-05-18T01:47:25.529Z,9.10
2019-05-18T01:49:53.553Z,9.10
2019-05-18T01:52:21.295Z,9.10
2019-05-18T01:54:48.927Z,9.10
2019-05-18T01:57:16.680Z,9.20
2019-05-18T01:59:44.308Z,9.20
2019-05-18T02:02:11.988Z,9.20
2019-05-18T02:04:39.687Z,9.30
2019-05-18T02:09:55.065Z,9.20
2019-05-18T02:12:22.747Z,9.20
2019-05-18T02:14:50.795Z,9.10
2019-05-18T02:17:18.559Z,9.00
2019-05-18T02:19:46.455Z,9.00
2019-05-18T02:22:14.132Z,9.00
2019-05-18T02:24:41.879Z,9.00
2019-05-18T02:27:09.518Z,8.90
2019-05-18T02:29:37.190Z,8.90
2019-05-18T02:32:05.084Z,8.80
2019-05-18T02:34:32.759Z,8.80
2019-05-18T02:37:00.400Z,8.70
2019-05-18T02:39:28.076Z,8.70
2019-05-18T02:41:55.743Z,8.70
2019-05-18T02:44:23.462Z,8.70
2019-05-18T02:46:51.377Z,8.70
2019-05-18T02:49:19.437Z,8.70
2019-05-18T02:51:47.087Z,8.70
2019-05-18T02:54:14.764Z,8.70
2019-05-18T02:56:42.404Z,8.60
2019-05-18T02:59:10.090Z,8.60
2019-05-18T03:01:37.734Z,8.50
2019-05-18T03:04:05.408Z,8.50
2019-05-18T03:06:33.044Z,8.40
2019-05-18T03:09:00.802Z,8.40
2019-05-18T03:11:28.439Z,8.40
2019-05-18T03:13:56.147Z,8.40
2019-05-18T03:16:23.791Z,8.40
2019-05-18T03:19:06.915Z,8.40
2019-05-18T03:21:21.160Z,8.40
2019-05-18T03:23:48.835Z,8.40
2019-05-18T03:26:16.485Z,8.30
2019-05-18T03:28:44.508Z,8.30
2019-05-18T03:31:12.155Z,8.30
2019-05-18T03:33:39.910Z,8.30
2019-05-18T03:36:07.608Z,8.30
2019-05-18T03:38:35.295Z,8.30
2019-05-18T03:41:02.937Z,8.20
2019-05-18T03:43:30.635Z,8.30
2019-05-18T03:45:58.277Z,8.30
2019-05-18T03:48:25.916Z,8.20
2019-05-18T03:50:53.599Z,8.20
2019-05-18T03:53:21.301Z,8.10
2019-05-18T03:55:48.976Z,8.10
2019-05-18T03:58:16.628Z,8.10
2019-05-18T04:00:44.366Z,8.10
2019-05-18T04:03:12.071Z,8.10
2019-05-18T04:05:39.762Z,8.10
2019-05-18T04:08:07.390Z,8.20
2019-05-18T04:10:35.072Z,8.10
2019-05-18T04:13:02.716Z,8.20
2019-05-18T04:15:30.392Z,8.10
2019-05-18T04:17:58.033Z,8.20
2019-05-18T04:20:25.748Z,8.10
2019-05-18T04:22:53.434Z,8.20
2019-05-18T04:25:21.100Z,8.30
2019-05-18T04:27:48.736Z,8.30
2019-05-18T04:30:16.511Z,8.40
2019-05-18T04:32:44.225Z,8.50
2019-05-18T04:35:11.912Z,8.50
2019-05-18T04:37:39.588Z,8.60
2019-05-18T04:40:07.610Z,8.60
2019-05-18T04:42:35.279Z,8.60
2019-05-18T04:45:02.922Z,8.60
2019-05-18T04:47:30.614Z,8.60
2019-05-18T04:50:05.408Z,8.70
2019-05-18T04:52:27.723Z,8.70
2019-05-18T04:54:55.360Z,8.70
2019-05-18T04:57:23.041Z,8.80
2019-05-18T04:59:50.675Z,8.90
2019-05-18T05:02:18.355Z,9.00
2019-05-18T05:04:45.987Z,9.10
2019-05-18T05:07:13.672Z,9.20
2019-05-18T05:09:41.321Z,9.30
2019-05-18T05:12:09.063Z,9.40
2019-05-18T05:14:36.702Z,9.40
2019-05-18T05:17:04.386Z,9.50
2019-05-18T05:19:32.019Z,9.60
2019-05-18T05:22:00.048Z,9.60
2019-05-18T05:24:27.682Z,9.70
2019-05-18T05:26:55.360Z,9.70
2019-05-18T05:29:22.991Z,9.80
2019-05-18T05:31:50.668Z,9.90
2019-05-18T05:34:18.307Z,9.90
2019-05-18T05:36:45.996Z,10.00
2019-05-18T05:39:13.636Z,10.00
2019-05-18T05:41:41.384Z,10.10
2019-05-18T05:44:09.328Z,10.20
2019-05-18T05:46:37.542Z,10.30
2019-05-18T05:49:05.247Z,10.40
2019-05-18T05:51:32.995Z,10.50
2019-05-18T05:54:00.631Z,10.60
2019-05-18T05:56:28.277Z,10.60
2019-05-18T05:58:55.962Z,10.70
2019-05-18T06:01:23.611Z,10.90
2019-05-18T06:03:51.295Z,10.90
2019-05-18T06:06:19.000Z,11.00
2019-05-18T06:08:46.687Z,11.10
2019-05-18T06:11:14.624Z,11.10
2019-05-18T06:13:42.309Z,11.20
2019-05-18T06:16:09.954Z,11.30
2019-05-18T06:18:37.642Z,11.40
2019-05-18T06:21:05.287Z,11.50
2019-05-18T06:23:32.967Z,11.70
2019-05-18T06:26:00.624Z,11.80
2019-05-18T06:28:28.305Z,11.90
2019-05-18T06:30:57.049Z,12.00
2019-05-18T06:33:25.036Z,12.10
2019-05-18T06:35:52.716Z,12.20
2019-05-18T06:38:20.364Z,12.30
2019-05-18T06:40:48.039Z,12.40
2019-05-18T06:43:15.752Z,12.50
2019-05-18T06:45:43.507Z,12.70
2019-05-18T06:48:11.156Z,12.70
2019-05-18T06:50:38.832Z,12.80
2019-05-18T06:53:06.469Z,13.00
2019-05-18T06:55:34.154Z,13.00
2019-05-18T06:58:02.068Z,13.10
2019-05-18T07:00:33.016Z,13.20
2019-05-18T07:03:00.670Z,13.30
2019-05-18T07:05:28.351Z,13.30
2019-05-18T07:07:56.011Z,13.40
2019-05-18T07:10:23.706Z,13.60
2019-05-18T07:12:51.355Z,13.60
2019-05-18T07:15:19.299Z,13.70
2019-05-18T07:17:46.943Z,13.80
2019-05-18T07:20:15.007Z,13.90
2019-05-18T07:22:42.651Z,13.90
2019-05-18T07:25:10.400Z,13.90
2019-05-18T07:27:38.040Z,13.90
2019-05-18T07:30:06.296Z,14.00
2019-05-18T07:32:33.944Z,14.10
2019-05-18T07:35:01.635Z,14.20
2019-05-18T07:37:29.297Z,14.20
2019-05-18T07:39:56.974Z,14.40
2019-05-18T07:42:24.691Z,14.40
2019-05-18T07:44:52.723Z,14.50
2019-05-18T07:47:20.428Z,14.70
2019-05-18T07:49:48.135Z,14.70
2019-05-18T07:52:17.380Z,14.80
2019-05-18T07:54:45.190Z,14.90
2019-05-18T07:57:12.900Z,15.00
2019-05-18T07:59:40.663Z,15.00
2019-05-18T08:02:08.350Z,15.10
2019-05-18T08:04:36.265Z,15.20
2019-05-18T08:07:05.404Z,15.20
2019-05-18T08:09:33.043Z,15.20
2019-05-18T08:12:00.762Z,15.30
2019-05-18T08:14:28.403Z,15.30
2019-05-18T08:16:56.078Z,15.30
2019-05-18T08:19:23.727Z,15.40
2019-05-18T08:21:53.467Z,15.50
2019-05-18T08:24:20.764Z,15.60
2019-05-18T08:26:48.456Z,15.70
2019-05-18T08:29:16.103Z,15.80
2019-05-18T08:31:43.806Z,15.80
2019-05-18T08:34:11.450Z,15.80
2019-05-18T08:36:39.123Z,15.90
2019-05-18T08:39:07.037Z,15.90
2019-05-18T08:41:34.832Z,16.00
2019-05-18T08:44:02.471Z,16.10
2019-05-18T08:46:30.223Z,16.20
2019-05-18T08:48:57.866Z,16.20
2019-05-18T08:51:25.555Z,16.20
2019-05-18T08:53:53.220Z,16.30
2019-05-18T08:56:20.952Z,16.40
2019-05-18T08:58:48.596Z,16.50
2019-05-18T09:01:16.283Z,16.50
2019-05-18T09:03:43.925Z,16.60
2019-05-18T09:06:11.599Z,16.60
2019-05-18T09:08:39.539Z,16.80
2019-05-18T09:11:07.511Z,16.80
2019-05-18T09:13:35.194Z,16.90
2019-05-18T09:16:02.839Z,17.00
2019-05-18T09:18:30.518Z,17.00
2019-05-18T09:20:58.163Z,17.10
2019-05-18T09:23:26.135Z,17.10
2019-05-18T09:25:53.786Z,17.20
2019-05-18T09:28:21.471Z,17.30
2019-05-18T09:30:49.359Z,17.40
2019-05-18T09:33:17.052Z,17.40
2019-05-18T09:35:44.697Z,17.40
2019-05-18T09:38:12.379Z,17.50
2019-05-18T09:40:40.030Z,17.60
2019-05-18T09:43:07.966Z,17.70
2019-05-18T09:45:35.613Z,17.70
2019-05-18T09:48:03.418Z,17.80
2019-05-18T09:50:31.174Z,17.90
2019-05-18T09:52:58.859Z,18.00
2019-05-18T09:55:26.502Z,18.00
2019-05-18T09:57:54.191Z,18.10
2019-05-18T10:00:21.959Z,18.10
2019-05-18T10:02:49.693Z,18.20
2019-05-18T10:05:17.443Z,18.20
2019-05-18T10:07:45.193Z,18.20
2019-05-18T10:10:12.899Z,18.20
2019-05-18T10:12:40.604Z,18.30
2019-05-18T10:15:08.515Z,18.30
2019-05-18T10:17:36.197Z,18.30
2019-05-18T10:20:05.331Z,18.30
2019-05-18T10:22:33.012Z,18.30
2019-05-18T10:25:00.721Z,18.30
2019-05-18T10:27:28.410Z,18.40
2019-05-18T10:29:56.051Z,18.50
2019-05-18T10:32:23.754Z,18.60
2019-05-18T10:34:51.391Z,18.70
2019-05-18T10:37:19.078Z,18.70
2019-05-18T10:39:46.732Z,18.70
2019-05-18T10:42:14.424Z,18.70
2019-05-18T10:44:42.068Z,18.80
2019-05-18T10:47:09.751Z,18.90
2019-05-18T10:49:37.716Z,19.00
2019-05-18T10:52:05.678Z,19.00
2019-05-18T10:54:33.337Z,19.10
2019-05-18T10:57:01.060Z,19.20
2019-05-18T10:59:29.065Z,19.20
2019-05-18T11:01:57.035Z,19.30
2019-05-18T11:04:27.810Z,19.30
2019-05-18T11:06:55.451Z,19.30
2019-05-18T11:09:23.199Z,19.40
2019-05-18T11:11:51.163Z,19.50
2019-05-18T11:14:19.085Z,19.60
2019-05-18T11:16:46.755Z,19.60
2019-05-18T11:19:14.434Z,19.50
2019-05-18T11:21:42.160Z,19.60
2019-05-18T11:24:09.831Z,19.60
2019-05-18T11:26:37.543Z,19.70
2019-05-18T11:29:05.227Z,19.80
2019-05-18T11:31:32.949Z,19.80
2019-05-18T11:34:00.644Z,19.90
2019-05-18T11:36:28.367Z,19.90
2019-05-18T11:38:56.617Z,19.90
2019-05-18T11:41:24.394Z,19.70
2019-05-18T11:43:52.267Z,19.60
2019-05-18T11:46:20.054Z,19.60
2019-05-18T11:48:47.926Z,19.60
2019-05-18T11:51:15.699Z,19.60
2019-05-18T11:53:56.221Z,19.60
2019-05-18T11:56:13.335Z,19.60
2019-05-18T11:58:41.125Z,19.50
2019-05-18T12:01:08.770Z,19.50
2019-05-18T12:03:36.521Z,19.50
2019-05-18T12:06:04.301Z,19.50
2019-05-18T12:08:32.495Z,19.50
2019-05-18T12:11:00.329Z,19.50
2019-05-18T12:13:28.092Z,19.60
2019-05-18T12:15:56.583Z,19.60
2019-05-18T12:18:24.333Z,19.70
2019-05-18T12:20:52.195Z,19.80
2019-05-18T12:23:20.249Z,19.90
2019-05-18T12:25:50.642Z,20.00
2019-05-18T12:28:17.542Z,20.10
2019-05-18T12:30:45.281Z,20.00
2019-05-18T12:33:13.089Z,20.00
2019-05-18T12:35:40.727Z,20.20
2019-05-18T12:38:08.415Z,20.30
2019-05-18T12:40:36.540Z,20.40
2019-05-18T12:43:04.269Z,20.40
2019-05-18T12:45:32.073Z,20.40
2019-05-18T12:47:59.756Z,20.40
2019-05-18T12:50:31.177Z,20.40
2019-05-18T12:52:59.460Z,20.40
2019-05-18T12:55:27.144Z,20.50
2019-05-18T12:57:55.093Z,20.50
2019-05-18T13:00:24.208Z,20.60
2019-05-18T13:02:51.855Z,20.60
2019-05-18T13:05:19.812Z,20.60
2019-05-18T13:07:47.530Z,20.70
2019-05-18T13:10:15.676Z,20.80
2019-05-18T13:12:43.358Z,20.90
2019-05-18T13:15:11.605Z,20.90
2019-05-18T13:17:39.389Z,20.90
2019-05-18T13:20:08.606Z,20.90
2019-05-18T13:22:36.260Z,21.00
2019-05-18T13:25:05.129Z,20.90
2019-05-18T13:27:39.281Z,20.90
2019-05-18T13:30:02.290Z,20.90
2019-05-18T13:32:29.935Z,21.00
2019-05-18T13:34:57.624Z,21.10
2019-05-18T13:37:25.502Z,21.10
2019-05-18T13:39:53.327Z,21.10
2019-05-18T13:42:21.383Z,21.10
2019-05-18T13:44:49.303Z,21.00
2019-05-18T13:47:17.885Z,21.00
2019-05-18T13:49:45.623Z,20.90
2019-05-18T13:52:13.401Z,20.90
2019-05-18T13:54:41.571Z,20.80
2019-05-18T13:57:09.339Z,20.70
2019-05-18T13:59:37.291Z,20.70
2019-05-18T14:02:05.019Z,20.70
2019-05-18T14:04:32.803Z,20.70
2019-05-18T14:07:00.603Z,20.70
2019-05-18T14:09:28.360Z,20.70
2019-05-18T14:11:56.069Z,20.80
2019-05-18T14:14:23.750Z,20.90
2019-05-18T14:16:51.764Z,20.90
2019-05-18T14:19:19.547Z,20.90
2019-05-18T14:21:47.271Z,20.90
2019-05-18T14:24:25.723Z,20.90
2019-05-18T14:26:53.420Z,20.80
2019-05-18T14:29:21.569Z,20.80
2019-05-18T14:31:49.312Z,20.70
2019-05-18T14:34:17.406Z,20.70
2019-05-18T14:36:45.223Z,20.70
2019-05-18T14:39:13.091Z,20.70
2019-05-18T14:41:42.590Z,20.80
2019-05-18T14:44:10.216Z,20.80
2019-05-18T14:46:37.926Z,20.80
2019-05-18T14:49:05.693Z,20.80
2019-05-18T14:51:33.494Z,20.80
2019-05-18T14:54:01.508Z,20.80
2019-05-18T14:56:29.572Z,20.90
2019-05-18T14:58:57.575Z,21.00
2019-05-18T15:01:25.383Z,21.10
2019-05-18T15:03:53.100Z,21.20
2019-05-18T15:06:20.935Z,21.40
2019-05-18T15:08:48.728Z,21.50
2019-05-18T15:11:16.516Z,21.60
2019-05-18T15:13:44.307Z,21.60
2019-05-18T15:16:11.987Z,21.60
2019-05-18T15:18:39.939Z,21.60
2019-05-18T15:21:07.730Z,21.60
2019-05-18T15:23:35.867Z,21.60
2019-05-18T15:26:03.582Z,21.60
2019-05-18T15:28:31.691Z,21.60
2019-05-18T15:30:59.867Z,21.50
2019-05-18T15:33:27.509Z,21.40
2019-05-18T15:35:55.419Z,21.30
2019-05-18T15:38:23.194Z,21.20
2019-05-18T15:40:50.951Z,21.00
2019-05-18T15:43:18.750Z,21.00
2019-05-18T15:45:46.653Z,20.90
2019-05-18T15:48:14.657Z,20.90
2019-05-18T15:50:42.523Z,20.90
2019-05-18T15:53:10.303Z,21.00
2019-05-18T15:55:37.983Z,20.90
2019-05-18T15:58:05.623Z,21.00
2019-05-18T16:00:33.571Z,21.00
2019-05-18T16:03:01.359Z,21.10
2019-05-18T16:05:29.251Z,21.10
2019-05-18T16:07:57.025Z,21.10
2019-05-18T16:10:25.803Z,21.10
2019-05-18T16:12:53.539Z,21.10
2019-05-18T16:15:21.580Z,21.10
2019-05-18T16:17:49.280Z,21.10
2019-05-18T16:20:19.263Z,21.10
2019-05-18T16:22:46.996Z,21.20
2019-05-18T16:25:14.902Z,21.30
2019-05-18T16:27:42.709Z,21.30
2019-05-18T16:30:10.831Z,21.30
2019-05-18T16:32:39.135Z,21.20
2019-05-18T16:35:07.431Z,21.20
2019-05-18T16:37:35.071Z,21.20
2019-05-18T16:40:02.718Z,21.20
2019-05-18T16:42:30.405Z,21.10
2019-05-18T16:44:58.337Z,21.10
2019-05-18T16:47:26.061Z,21.10
2019-05-18T16:49:53.700Z,21.10
2019-05-18T16:52:21.380Z,21.00
2019-05-18T16:54:49.027Z,20.90
2019-05-18T16:57:16.749Z,20.70
2019-05-18T16:59:44.427Z,20.50
2019-05-18T17:02:12.112Z,20.30
2019-05-18T17:04:39.755Z,20.10
2019-05-18T17:07:07.437Z,20.00
2019-05-18T17:09:35.091Z,19.90
2019-05-18T17:12:02.984Z,19.80
2019-05-18T17:14:30.718Z,19.90
2019-05-18T17:16:58.412Z,20.10
2019-05-18T17:19:26.043Z,20.30
2019-05-18T17:21:53.999Z,20.70
2019-05-18T17:24:21.644Z,21.20
2019-05-18T17:26:53.043Z,21.60
2019-05-18T17:29:18.759Z,21.80
2019-05-18T17:31:46.500Z,21.70
2019-05-18T17:34:14.380Z,21.50
2019-05-18T17:36:42.334Z,21.40
2019-05-18T17:39:09.979Z,21.30
2019-05-18T17:41:37.667Z,21.40
2019-05-18T17:44:05.308Z,21.40
2019-05-18T17:46:32.987Z,21.20
2019-05-18T17:49:00.646Z,20.90
2019-05-18T17:51:28.315Z,20.80
2019-05-18T17:53:55.955Z,20.80
2019-05-18T17:56:23.711Z,20.80
2019-05-18T17:58:51.378Z,20.70
2019-05-18T18:01:19.055Z,20.70
2019-05-18T18:03:46.694Z,20.60
2019-05-18T18:06:14.381Z,20.50
2019-05-18T18:08:42.022Z,20.30
2019-05-18T18:11:11.897Z,20.00
2019-05-18T18:13:39.461Z,19.70
2019-05-18T18:16:07.129Z,19.50
2019-05-18T18:18:35.094Z,19.30
2019-05-18T18:21:03.229Z,19.10
2019-05-18T18:23:30.913Z,18.90
2019-05-18T18:25:58.557Z,18.80
2019-05-18T18:28:26.244Z,18.70
2019-05-18T18:30:53.887Z,18.60
2019-05-18T18:33:21.559Z,18.50
2019-05-18T18:35:49.201Z,18.40
2019-05-18T18:38:16.884Z,18.40
2019-05-18T18:40:44.528Z,18.30
2019-05-18T18:43:12.366Z,18.20
2019-05-18T18:45:40.019Z,18.10
2019-05-18T18:48:07.721Z,18.10
2019-05-18T18:50:35.366Z,18.00
2019-05-18T18:53:03.024Z,17.90
2019-05-18T18:55:30.708Z,17.90
2019-05-18T18:57:58.348Z,17.80
2019-05-18T19:00:26.103Z,17.70
2019-05-18T19:02:53.991Z,17.60
2019-05-18T19:05:21.677Z,17.50
2019-05-18T19:07:49.328Z,17.40
2019-05-18T19:10:17.080Z,17.30
2019-05-18T19:12:45.074Z,17.20
2019-05-18T19:15:13.224Z,17.10
2019-05-18T19:17:41.203Z,17.00
2019-05-18T19:20:09.264Z,16.90
2019-05-18T19:22:36.900Z,16.80
2019-05-18T19:25:04.651Z,16.70
2019-05-18T19:27:32.672Z,16.50
2019-05-18T19:30:00.636Z,16.40
2019-05-18T19:32:28.275Z,16.30
2019-05-18T19:34:55.951Z,16.20
2019-05-18T19:37:26.376Z,16.20
2019-05-18T19:39:53.068Z,16.20
2019-05-18T19:42:20.727Z,16.10
2019-05-18T19:44:48.416Z,15.90
2019-05-18T19:47:16.059Z,15.80
2019-05-18T19:49:43.757Z,15.70
2019-05-18T19:52:11.398Z,15.50
2019-05-18T19:54:39.079Z,15.50
2019-05-18T19:57:06.732Z,15.50
2019-05-18T19:59:34.407Z,15.40
2019-05-18T20:02:02.057Z,15.40
2019-05-18T20:04:29.737Z,15.30
2019-05-18T20:06:57.390Z,15.30
2019-05-18T20:09:25.068Z,15.30
2019-05-18T20:11:52.707Z,15.20
2019-05-18T20:14:20.350Z,15.20
2019-05-18T20:16:48.037Z,15.00
2019-05-18T20:19:15.671Z,14.90
2019-05-18T20:21:43.373Z,14.80
2019-05-18T20:24:11.102Z,14.80
2019-05-18T20:26:38.776Z,14.70
2019-05-18T20:29:06.410Z,14.70
2019-05-18T20:31:34.115Z,14.60
2019-05-18T20:34:01.755Z,14.60
2019-05-18T20:36:29.780Z,14.50
2019-05-18T20:38:57.420Z,14.40
2019-05-18T20:41:25.108Z,14.30
2019-05-18T20:43:52.754Z,14.20
2019-05-18T20:46:20.439Z,14.10
2019-05-18T20:48:48.350Z,14.10
2019-05-18T20:51:16.040Z,14.10
2019-05-18T20:53:43.680Z,14.20
2019-05-18T20:56:11.373Z,14.20
2019-05-18T20:58:40.659Z,14.20
2019-05-18T21:01:08.415Z,14.10
2019-05-18T21:03:36.060Z,14.00
2019-05-18T21:06:03.804Z,14.00
2019-05-18T21:08:31.444Z,14.00
2019-05-18T21:10:59.126Z,14.00
2019-05-18T21:13:26.766Z,14.10
2019-05-18T21:15:54.451Z,14.10
2019-05-18T21:18:22.092Z,14.20
2019-05-18T21:20:49.783Z,14.10
2019-05-18T21:23:17.431Z,14.00
2019-05-18T21:25:45.111Z,13.90
2019-05-18T21:28:12.753Z,13.80
2019-05-18T21:30:40.431Z,13.70
2019-05-18T21:33:08.090Z,13.70
2019-05-18T21:35:35.767Z,13.70
2019-05-18T21:38:03.411Z,13.60
2019-05-18T21:40:31.358Z,13.50
2019-05-18T21:42:59.008Z,13.50
2019-05-18T21:45:26.684Z,13.40
2019-05-18T21:47:54.328Z,13.40
2019-05-18T21:50:22.319Z,13.40
2019-05-18T21:52:49.971Z,13.40
2019-05-18T21:55:17.606Z,13.40
2019-05-18T21:57:45.289Z,13.40
2019-05-18T22:00:13.196Z,13.40
2019-05-18T22:02:40.894Z,13.30
2019-05-18T22:05:08.810Z,13.20
2019-05-18T22:07:36.491Z,13.10
2019-05-18T22:10:05.807Z,13.00
2019-05-18T22:12:33.487Z,13.00
2019-05-18T22:15:01.137Z,13.00
2019-05-18T22:17:29.084Z,12.90
2019-05-18T22:19:57.041Z,12.90
2019-05-18T22:22:24.728Z,12.80
2019-05-18T22:24:52.367Z,12.70
2019-05-18T22:27:20.046Z,12.80
2019-05-18T22:29:47.694Z,12.80
2019-05-18T22:32:15.373Z,12.80
2019-05-18T22:34:43.016Z,12.80
2019-05-18T22:37:10.698Z,12.90
2019-05-18T22:39:38.343Z,13.00
2019-05-18T22:42:06.033Z,13.00
2019-05-18T22:44:33.679Z,13.00
2019-05-18T22:47:01.672Z,13.10
2019-05-18T22:49:29.355Z,13.10
2019-05-18T22:51:57.328Z,13.10
2019-05-18T22:54:25.217Z,13.10
2019-05-18T22:56:52.894Z,13.10
2019-05-18T22:59:20.536Z,13.10
2019-05-18T23:01:48.219Z,13.10
2019-05-18T23:04:15.855Z,13.10
2019-05-18T23:06:43.547Z,13.10
2019-05-18T23:09:11.536Z,13.10
2019-05-18T23:11:39.222Z,13.00
2019-05-18T23:14:06.861Z,13.00
2019-05-18T23:16:34.815Z,13.00
2019-05-18T23:19:02.492Z,13.10
2019-05-18T23:21:30.227Z,13.10
2019-05-18T23:23:58.111Z,13.10
2019-05-18T23:26:25.800Z,13.10
2019-05-18T23:28:53.443Z,13.10
2019-05-18T23:31:21.171Z,13.20
2019-05-18T23:33:48.849Z,13.20
2019-05-18T23:36:16.495Z,13.20
2019-05-18T23:38:44.172Z,13.30
2019-05-18T23:41:11.819Z,13.30
2019-05-18T23:43:39.496Z,13.30
2019-05-18T23:46:07.184Z,13.30
2019-05-18T23:48:34.865Z,13.30
2019-05-18T23:51:02.507Z,13.30
2019-05-18T23:53:30.187Z,13.40
2019-05-18T23:55:57.836Z,13.40
2019-05-18T23:58:25.515Z,13.40
